Sunday, August 28, 2016, 8:03 PM EDT

KTHV, York Airport

Location: Spring Grove, PA, United States Lat: 39.917
Local Time: 8:03 PM EDT ( 0:03 GMT) Lon: -76.883
Time Zone: US/Eastern Elev: 478 ft

Show me the last for .
Show Decoded

2016-08-28 18:53 METAR KTHV 282253Z AUTO 19004KT 10SM CLR 29/16 A3015 RMK AO2 SLP208 T02890161 =
2016-08-28 17:53 METAR KTHV 282153Z AUTO 14008KT 10SM CLR 30/16 A3017 RMK AO2 SLP214 T03000161 =
2016-08-28 16:53 METAR KTHV 282053Z AUTO VRB04KT 10SM CLR 31/17 A3018 RMK AO2 SLP217 T03110172
                 56020 =
2016-08-28 15:53 METAR KTHV 281953Z AUTO 10SM CLR 31/17 A3018 RMK AO2 SLP220 T03110172 =
2016-08-28 14:53 METAR KTHV 281853Z AUTO 14007KT 10SM CLR 31/17 A3022 RMK AO2 SLP230 T03110172 =
2016-08-28 13:53 METAR KTHV 281753Z AUTO 14007KT 10SM CLR 31/16 A3024 RMK AO2 SLP236 T03110161
                 10311 20211 56011 =
2016-08-28 12:53 METAR KTHV 281653Z AUTO 15007KT 10SM CLR 30/16 A3024 RMK AO2 SLP238 T03000161 =
2016-08-28 11:53 METAR KTHV 281553Z AUTO 10SM CLR 29/17 A3025 RMK AO2 SLP243 T02890172 =
2016-08-28 10:53 METAR KTHV 281453Z AUTO VRB05KT 10SM CLR 27/20 A3027 RMK AO2 SLP248 T02720200
                 58001 =
2016-08-28 09:53 METAR KTHV 281353Z AUTO 14005KT 10SM CLR 25/21 A3027 RMK AO2 SLP249 T02500206 =
2016-08-28 08:53 METAR KTHV 281253Z AUTO 00000KT 10SM CLR 23/21 A3027 RMK AO2 SLP250 T02330206 =
2016-08-28 07:53 METAR KTHV 281153Z AUTO 00000KT 8SM CLR 21/19 A3027 RMK AO2 SLP249 T02110194
                 10222 20161 51014 =
2016-08-28 06:53 METAR KTHV 281053Z AUTO 00000KT 10SM CLR 17/17 A3027 RMK AO2 SLP247 T01720167 =
2016-08-28 05:53 METAR KTHV 280953Z AUTO 00000KT 4SM BR CLR 17/17 A3025 RMK AO2 SLP243 T01720167
                 =
2016-08-28 04:53 METAR KTHV 280853Z AUTO 00000KT 7SM CLR 18/17 A3023 RMK AO2 SLP234 T01780167
                 53007 =
2016-08-28 03:53 METAR KTHV 280753Z AUTO 00000KT 9SM CLR 18/17 A3021 RMK AO2 SLP229 T01780167 =
2016-08-28 02:53 METAR KTHV 280653Z AUTO 00000KT 10SM CLR 19/18 A3021 RMK AO2 SLP227 T01940178 =
2016-08-28 01:53 METAR KTHV 280553Z AUTO 14004KT 10SM CLR 22/19 A3021 RMK AO2 SLP226 T02220189
                 10267 20200 56001 =
2016-08-28 00:53 METAR KTHV 280453Z AUTO 00000KT 10SM CLR 22/19 A3021 RMK AO2 SLP226 T02170194
                 403170161 =
2016-08-27 23:53 METAR KTHV 280353Z AUTO 00000KT 10SM CLR 22/19 A3020 RMK AO2 SLP226 T02170189 =
2016-08-27 22:53 METAR KTHV 280253Z AUTO 00000KT 10SM CLR 21/19 A3021 RMK AO2 SLP229 T02060189
                 51014 =
2016-08-27 21:53 METAR KTHV 280153Z AUTO 00000KT 10SM CLR 21/19 A3021 RMK AO2 SLP227 T02110194 =
2016-08-27 20:53 METAR KTHV 280053Z AUTO 00000KT 10SM CLR 23/20 A3019 RMK AO2 SLP222 T02280200 =

Support USWX by starting your Amazon purchase here.